Time;durP1;ratioP1;P1;durP2;ratioP2;P2;SDS_P1;SDS_P2;PMS_P1;PMS_P2;Temp;Humidity;BMP_temperature;BMP_pressure;BME280_temperature;BME280_humidity;BME280_pressure;Samples;Min_cycle;Max_cycle;Signal;HPM_P1;HPM_P2
2021/08/26 00:07:33;;;;;;;;;2.00;0.00;;;;;18.33;59.42;101573.06;5077299;28;45520;-77
2021/08/26 00:09:59;;;;;;;;;0.00;0.00;;;;;18.32;59.54;101566.06;5078559;28;45199;-77
2021/08/26 00:12:24;;;;;;;;;0.00;0.00;;;;;18.16;59.43;101549.56;5078825;28;45852;-76
2021/08/26 00:14:50;;;;;;;;;0.75;0.75;;;;;17.99;59.94;101526.84;5077959;27;46425;-76
2021/08/26 00:17:15;;;;;;;;;0.00;0.00;;;;;17.97;59.74;101545.28;5075586;28;48252;-76
2021/08/26 00:19:44;;;;;;;;;0.00;0.00;;;;;17.80;60.25;101510.34;5060413;28;45502;-76
2021/08/26 00:22:09;;;;;;;;;0.00;0.00;;;;;17.90;60.02;101543.59;5060263;28;45337;-77
2021/08/26 00:24:37;;;;;;;;;1.00;1.00;;;;;17.83;60.00;101542.78;5094744;27;46330;-77
2021/08/26 00:27:04;;;;;;;;;0.00;0.00;;;;;17.91;60.10;101553.25;5063628;28;45244;-76
2021/08/26 00:29:29;;;;;;;;;0.00;0.00;;;;;17.79;60.47;101545.47;5059952;28;45213;-77
2021/08/26 00:31:54;;;;;;;;;0.50;0.50;;;;;17.72;60.25;101539.38;5059884;28;45195;-77
2021/08/26 00:34:20;;;;;;;;;0.00;0.00;;;;;17.62;60.24;101516.63;5059912;28;46161;-77
2021/08/26 00:36:45;;;;;;;;;0.00;0.00;;;;;17.73;60.50;101533.22;5064181;27;45280;-76
2021/08/26 00:39:10;;;;;;;;;0.00;0.00;;;;;17.88;60.12;101558.53;5077763;28;45521;-77
2021/08/26 00:41:36;;;;;;;;;0.25;0.00;;;;;17.77;60.90;101549.88;5078431;28;45268;-77
2021/08/26 00:44:02;;;;;;;;;0.25;0.25;;;;;17.77;60.80;101553.38;5094594;27;47750;-77
2021/08/26 00:46:27;;;;;;;;;1.00;0.00;;;;;17.69;60.76;101544.66;5071075;27;45493;-76
2021/08/26 00:48:53;;;;;;;;;1.75;0.00;;;;;17.63;60.38;101564.03;5059757;28;45382;-77
2021/08/26 00:51:18;;;;;;;;;0.00;0.00;;;;;17.66;60.76;101561.38;5058119;28;45422;-77
2021/08/26 00:53:44;;;;;;;;;0.00;0.00;;;;;17.79;60.82;101566.53;5059571;28;45426;-77
2021/08/26 00:56:13;;;;;;;;;0.00;0.00;;;;;17.82;61.05;101562.09;5063424;28;45474;-77
2021/08/26 00:58:38;;;;;;;;;0.00;0.00;;;;;17.70;60.25;101538.53;5059706;28;45222;-77
2021/08/26 01:01:08;;;;;;;;;1.00;1.00;;;;;17.64;60.65;101520.16;5059346;28;45339;-77
2021/08/26 01:03:55;;;;;;;;;0.50;0.00;;;;;17.84;60.60;101557.72;5075020;28;47703;-77
2021/08/26 01:06:29;;;;;;;;;2.00;0.25;;;;;17.81;60.06;101556.84;5064924;28;46127;-76
2021/08/26 01:09:04;;;;;;;;;0.25;0.00;;;;;17.65;60.44;101538.56;5095221;27;45385;-76
2021/08/26 01:11:35;;;;;;;;;0.00;0.00;;;;;17.72;60.58;101550.78;5079678;27;45288;-76
2021/08/26 01:14:03;;;;;;;;;0.00;0.00;;;;;17.58;61.02;101536.88;5079701;27;45537;-76
2021/08/26 01:16:28;;;;;;;;;0.00;0.00;;;;;17.54;60.89;101535.13;5073407;28;45921;-76
2021/08/26 01:18:54;;;;;;;;;0.00;0.00;;;;;17.43;60.81;101506.28;5078534;28;45266;-76
2021/08/26 01:21:24;;;;;;;;;0.25;0.00;;;;;17.37;60.67;101512.47;5078347;28;45888;-77
2021/08/26 01:23:54;;;;;;;;;1.00;1.00;;;;;17.44;60.78;101522.06;5090768;27;45672;-77
2021/08/26 01:26:24;;;;;;;;;0.00;0.00;;;;;17.58;61.08;101550.88;5090914;27;45405;-77
2021/08/26 01:28:54;;;;;;;;;0.00;0.00;;;;;17.54;60.54;101540.38;5079575;27;45305;-77
2021/08/26 01:31:21;;;;;;;;;0.75;0.00;;;;;17.53;60.71;101539.53;5079433;27;45436;-76
2021/08/26 01:33:51;;;;;;;;;0.00;0.00;;;;;17.32;61.24;101514.25;5079379;27;45547;-76
2021/08/26 01:36:17;;;;;;;;;0.00;0.00;;;;;17.28;60.88;101502.88;5076623;27;45532;-76
2021/08/26 01:38:50;;;;;;;;;0.25;0.00;;;;;17.24;60.77;101516.91;5077707;28;45322;-76
2021/08/26 01:41:16;;;;;;;;;0.00;0.00;;;;;17.07;60.99;101490.72;5079150;27;45537;-77
2021/08/26 01:43:48;;;;;;;;;0.00;0.00;;;;;17.41;61.23;101540.50;5079109;27;46160;-77
2021/08/26 01:46:17;;;;;;;;;0.00;0.00;;;;;16.77;62.09;101476.84;5076849;27;45256;-77
2021/08/26 01:48:45;;;;;;;;;0.00;0.00;;;;;17.15;61.14;101548.56;5078070;28;45519;-77
2021/08/26 01:51:11;;;;;;;;;0.00;0.00;;;;;17.05;61.87;101553.84;5079950;27;45248;-77
2021/08/26 01:53:36;;;;;;;;;0.00;0.00;;;;;16.83;62.78;101526.78;5082309;27;46293;-77
2021/08/26 01:56:01;;;;;;;;;1.00;0.00;;;;;16.74;63.05;101532.94;5082378;28;45259;-77
2021/08/26 01:58:27;;;;;;;;;0.00;0.00;;;;;16.71;63.30;101532.97;5080435;28;45448;-77
2021/08/26 02:00:52;;;;;;;;;0.00;0.00;;;;;16.72;63.60;101538.22;5082314;27;45252;-77
2021/08/26 02:03:17;;;;;;;;;0.00;0.00;;;;;16.42;63.90;101505.06;5082640;27;46346;-77
2021/08/26 02:05:43;;;;;;;;;0.00;0.00;;;;;16.42;63.63;101541.84;5082370;27;45251;-77
2021/08/26 02:08:08;;;;;;;;;2.00;0.00;;;;;16.38;64.45;101529.59;5077892;27;45259;-77
2021/08/26 02:10:33;;;;;;;;;0.00;0.00;;;;;16.20;64.06;101505.09;5082341;27;45274;-77
2021/08/26 02:12:59;;;;;;;;;0.00;0.00;;;;;16.30;64.30;101537.50;5082251;27;45322;-77
2021/08/26 02:15:24;;;;;;;;;0.00;0.00;;;;;16.30;64.86;101537.50;5082025;27;45203;-77
2021/08/26 02:17:50;;;;;;;;;0.00;0.00;;;;;16.18;64.90;101512.13;5079822;27;45476;-78
2021/08/26 02:20:15;;;;;;;;;0.00;0.00;;;;;16.14;64.55;101495.47;5082316;27;45442;-77
2021/08/26 02:22:41;;;;;;;;;0.00;0.00;;;;;16.22;64.93;101519.13;5083708;27;46250;-77
2021/08/26 02:25:08;;;;;;;;;0.00;0.00;;;;;16.07;64.76;101499.88;5101310;27;45784;-78
2021/08/26 02:27:33;;;;;;;;;0.00;0.00;;;;;16.05;65.27;101508.66;5089758;27;45259;-78
2021/08/26 02:29:59;;;;;;;;;0.50;0.50;;;;;15.88;65.47;101499.03;5081704;28;45349;-77
2021/08/26 02:32:29;;;;;;;;;0.00;0.00;;;;;16.08;65.01;101516.53;5082059;28;45505;-77
2021/08/26 02:34:54;;;;;;;;;0.00;0.00;;;;;16.26;64.34;101530.50;5080715;28;45302;-77
2021/08/26 02:37:19;;;;;;;;;0.00;0.00;;;;;16.11;65.23;101513.03;5079174;27;45249;-77
2021/08/26 02:39:45;;;;;;;;;0.00;0.00;;;;;16.13;65.65;101520.00;5080216;28;45189;-77
2021/08/26 02:42:10;;;;;;;;;0.00;0.00;;;;;15.95;64.67;101492.88;5080301;28;47328;-77
2021/08/26 02:44:35;;;;;;;;;0.00;0.00;;;;;16.03;65.16;101505.16;5097517;27;45220;-77
2021/08/26 02:47:00;;;;;;;;;0.00;0.00;;;;;16.17;65.04;101536.66;5081935;27;45307;-76
2021/08/26 02:49:26;;;;;;;;;1.50;0.00;;;;;15.95;65.41;101495.50;5077303;28;45349;-76
2021/08/26 02:51:51;;;;;;;;;0.00;0.00;;;;;16.07;65.18;101504.25;5081699;27;45539;-76
2021/08/26 02:54:16;;;;;;;;;0.00;0.00;;;;;16.06;65.06;101502.53;5081627;27;45369;-76
2021/08/26 02:56:42;;;;;;;;;0.00;0.00;;;;;15.95;65.04;101511.25;5081643;27;45288;-76
2021/08/26 02:59:07;;;;;;;;;0.00;0.00;;;;;15.75;65.63;101473.66;5076885;27;45487;-76
2021/08/26 03:01:32;;;;;;;;;0.00;0.00;;;;;15.82;65.32;101515.66;5097229;27;47354;-76
2021/08/26 03:03:58;;;;;;;;;0.00;0.00;;;;;15.80;65.63;101508.63;5081243;27;45330;-76
2021/08/26 03:06:23;;;;;;;;;0.00;0.00;;;;;15.55;65.44;101475.41;5081874;27;45351;-76
2021/08/26 03:08:48;;;;;;;;;0.00;0.00;;;;;15.78;65.77;101499.91;5079098;27;45503;-76
2021/08/26 03:11:14;;;;;;;;;0.00;0.00;;;;;15.90;65.43;101515.63;5081142;27;45342;-76
2021/08/26 03:13:39;;;;;;;;;0.00;0.00;;;;;15.95;65.76;101513.00;5096944;27;46281;-76
2021/08/26 03:16:05;;;;;;;;;0.00;0.00;;;;;15.88;65.22;101501.66;5081521;27;45394;-76
2021/08/26 03:18:31;;;;;;;;;0.00;0.00;;;;;15.86;65.37;101510.41;5077527;27;45268;-76
2021/08/26 03:20:57;;;;;;;;;0.00;0.00;;;;;15.53;65.85;101466.66;5080691;27;45374;-78
2021/08/26 03:23:22;;;;;;;;;0.00;0.00;;;;;15.73;65.57;101486.78;5087189;27;45197;-76
2021/08/26 03:25:48;;;;;;;;;0.00;0.00;;;;;15.83;65.95;101506.88;5099969;27;45302;-76
2021/08/26 03:28:13;;;;;;;;;0.00;0.00;;;;;15.68;65.97;101476.28;5094315;27;45449;-76
2021/08/26 03:30:39;;;;;;;;;0.00;0.00;;;;;15.80;65.93;101506.88;5078001;28;47885;-76
2021/08/26 03:33:04;;;;;;;;;0.00;0.00;;;;;15.82;66.23;101505.16;5096091;27;45917;-77
2021/08/26 03:35:30;;;;;;;;;0.00;0.00;;;;;15.73;65.53;101478.03;5079251;28;45335;-77
2021/08/26 03:37:55;;;;;;;;;0.00;0.00;;;;;15.83;65.91;101506.88;5080446;28;45260;-77
2021/08/26 03:40:20;;;;;;;;;0.50;0.00;;;;;15.70;65.85;101482.41;5077724;27;46156;-77
2021/08/26 03:42:46;;;;;;;;;0.00;0.00;;;;;15.78;65.48;101494.66;5080700;28;45394;-76
2021/08/26 03:45:11;;;;;;;;;0.00;0.00;;;;;15.71;65.59;101480.66;5080978;27;45323;-76
2021/08/26 03:47:36;;;;;;;;;0.00;0.00;;;;;15.76;65.34;101486.78;5079377;28;45412;-77
2021/08/26 03:50:02;;;;;;;;;0.00;0.00;;;;;15.64;65.63;101477.16;5075552;28;46207;-77
2021/08/26 03:52:28;;;;;;;;;0.00;0.00;;;;;15.79;65.69;101505.16;5080363;27;45370;-77
2021/08/26 03:54:53;;;;;;;;;0.00;0.00;;;;;15.73;65.35;101488.50;5079592;28;45284;-76
2021/08/26 03:57:18;;;;;;;;;0.00;0.00;;;;;15.49;65.87;101456.19;5096020;27;45918;-77
2021/08/26 03:59:44;;;;;;;;;0.00;0.00;;;;;15.54;65.45;101457.94;5075859;27;45352;-78
2021/08/26 04:02:09;;;;;;;;;0.00;0.00;;;;;15.65;65.43;101492.03;5079379;28;45377;-77
2021/08/26 04:04:34;;;;;;;;;0.00;0.00;;;;;15.52;65.91;101485.91;5080675;27;45269;-78
2021/08/26 04:07:00;;;;;;;;;0.00;0.00;;;;;15.80;65.40;101524.38;5080552;27;45351;-77
2021/08/26 04:09:25;;;;;;;;;0.00;0.00;;;;;15.67;66.02;101518.28;5075138;27;45586;-78
2021/08/26 04:11:50;;;;;;;;;0.00;0.00;;;;;15.62;66.17;101497.28;5078957;28;45948;-77
2021/08/26 04:14:16;;;;;;;;;0.00;0.00;;;;;15.67;66.01;101511.28;5080017;27;45330;-77
2021/08/26 04:16:41;;;;;;;;;1.00;0.00;;;;;15.52;66.24;101504.28;5080193;27;45206;-77
2021/08/26 04:19:06;;;;;;;;;0.00;0.00;;;;;15.56;66.41;101524.41;5077282;27;45287;-77
2021/08/26 04:21:32;;;;;;;;;0.00;0.00;;;;;15.57;66.04;101512.16;5076833;28;45522;-77
2021/08/26 04:23:58;;;;;;;;;0.00;0.00;;;;;15.47;66.19;101495.53;5092381;27;45169;-77
2021/08/26 04:26:23;;;;;;;;;0.00;0.00;;;;;15.60;66.16;101517.41;5099721;27;45263;-77
2021/08/26 04:28:49;;;;;;;;;0.00;0.00;;;;;15.61;66.27;101505.16;5100348;27;46307;-77
2021/08/26 04:31:14;;;;;;;;;0.00;0.00;;;;;15.42;66.10;101492.91;5075383;28;45393;-77
2021/08/26 04:33:39;;;;;;;;;0.00;0.00;;;;;15.49;66.69;101506.91;5080079;28;45245;-77
2021/08/26 04:36:05;;;;;;;;;0.00;0.00;;;;;15.35;66.81;101483.31;5079973;28;45219;-77
2021/08/26 04:38:30;;;;;;;;;0.00;0.00;;;;;15.49;66.55;101490.31;5079771;28;45702;-77
2021/08/26 04:40:55;;;;;;;;;0.00;0.00;;;;;15.63;66.41;101490.28;5075097;27;45428;-77
2021/08/26 04:43:21;;;;;;;;;0.00;0.00;;;;;15.67;66.06;101490.28;5080263;27;45420;-77
2021/08/26 04:45:46;;;;;;;;;0.00;0.00;;;;;15.73;66.13;101499.00;5079444;28;45283;-77
2021/08/26 04:48:12;;;;;;;;;0.00;0.00;;;;;15.63;66.11;101475.41;5078380;28;45481;-77
2021/08/26 04:50:37;;;;;;;;;0.00;0.00;;;;;15.78;66.20;101505.16;5073553;27;45738;-77
2021/08/26 04:53:02;;;;;;;;;0.00;0.00;;;;;15.66;65.96;101495.53;5077940;27;45460;-77
2021/08/26 04:55:28;;;;;;;;;0.00;0.00;;;;;15.57;66.20;101472.78;5111605;27;45299;-77
2021/08/26 04:57:53;;;;;;;;;0.00;0.00;;;;;15.65;65.96;101485.91;5079661;28;46218;-78
2021/08/26 05:00:19;;;;;;;;;0.00;0.00;;;;;15.61;66.27;101489.41;5074845;28;45872;-78
2021/08/26 05:02:44;;;;;;;;;0.00;0.00;;;;;15.61;66.50;101490.28;5077506;28;45395;-78
2021/08/26 05:05:10;;;;;;;;;0.00;0.00;;;;;15.68;66.60;101478.91;5071343;28;45264;-78
2021/08/26 05:07:35;;;;;;;;;0.00;0.00;;;;;15.66;66.28;101443.03;5059073;28;46326;-78
2021/08/26 05:10:00;;;;;;;;;0.00;0.00;;;;;15.95;65.95;101485.00;5061114;27;45516;-77
2021/08/26 05:12:26;;;;;;;;;0.00;0.00;;;;;16.07;66.18;101485.88;5075042;27;45456;-78
2021/08/26 05:14:51;;;;;;;;;0.00;0.00;;;;;16.29;65.72;101504.22;5091708;27;45897;-77
2021/08/26 05:17:18;;;;;;;;;0.00;0.00;;;;;16.21;65.37;101484.06;5060144;28;45286;-77
2021/08/26 05:19:43;;;;;;;;;0.00;0.00;;;;;16.14;65.81;101484.97;5101005;27;46081;-78
2021/08/26 05:22:09;;;;;;;;;0.00;0.00;;;;;16.30;65.44;101493.69;5093042;27;45505;-77
2021/08/26 05:24:35;;;;;;;;;0.00;0.00;;;;;16.36;65.17;101510.31;5080247;27;45509;-78
2021/08/26 05:27:00;;;;;;;;;0.00;0.00;;;;;16.23;65.02;101497.22;5080266;28;45464;-78
2021/08/26 05:29:26;;;;;;;;;0.00;0.00;;;;;15.93;65.71;101483.25;5082385;27;45217;-78
2021/08/26 05:31:51;;;;;;;;;0.00;0.00;;;;;16.09;65.45;101497.25;5078541;28;45602;-75
2021/08/26 05:34:16;;;;;;;;;0.00;0.00;;;;;16.14;65.54;101498.09;5072425;28;45591;-77
2021/08/26 05:36:42;;;;;;;;;0.00;0.00;;;;;16.14;65.66;101507.75;5078965;28;45569;-77
2021/08/26 05:39:07;;;;;;;;;0.00;0.00;;;;;16.13;65.77;101503.38;5082701;28;45392;-77
2021/08/26 05:41:32;;;;;;;;;0.00;0.00;;;;;15.85;65.94;101470.13;5075726;28;45460;-78
2021/08/26 05:43:58;;;;;;;;;0.00;0.00;;;;;16.15;66.15;101513.00;5095969;27;45480;-78
2021/08/26 05:46:23;;;;;;;;;1.00;0.00;;;;;16.07;65.71;101485.88;5060526;28;47113;-78
2021/08/26 05:48:48;;;;;;;;;0.00;0.00;;;;;15.82;66.34;101452.66;5061836;28;45323;-78
2021/08/26 05:51:14;;;;;;;;;0.00;0.00;;;;;16.13;66.08;101508.63;5068114;27;45475;-77
2021/08/26 05:53:39;;;;;;;;;0.00;0.00;;;;;16.01;66.13;101510.41;5073399;27;45405;-77
2021/08/26 05:56:05;;;;;;;;;0.00;0.00;;;;;15.90;66.36;101484.13;5061920;28;45649;-78
2021/08/26 05:58:30;;;;;;;;;1.00;0.00;;;;;16.08;66.54;101513.91;5060198;28;45432;-78
2021/08/26 06:00:56;;;;;;;;;0.00;0.00;;;;;15.98;66.21;101497.28;5064726;28;45477;-77
2021/08/26 06:03:21;;;;;;;;;0.00;0.00;;;;;16.05;66.54;101506.88;5074902;27;45439;-78
2021/08/26 06:05:47;;;;;;;;;0.00;0.00;;;;;16.02;66.62;101506.03;5061625;28;46546;-77
2021/08/26 06:08:12;;;;;;;;;0.00;0.00;;;;;16.01;66.73;101517.38;5061396;28;45295;-77
2021/08/26 06:10:37;;;;;;;;;0.00;0.00;;;;;15.84;67.10;101479.75;5062529;28;45150;-76
2021/08/26 06:13:03;;;;;;;;;0.00;0.00;;;;;15.95;67.07;101520.88;5078561;28;45271;-76
2021/08/26 06:15:29;;;;;;;;;0.00;0.00;;;;;15.77;67.22;101490.28;5113986;27;48231;-76
2021/08/26 06:17:54;;;;;;;;;0.00;0.00;;;;;15.84;67.22;101505.16;5114365;27;45945;-76
2021/08/26 06:20:20;;;;;;;;;0.00;0.00;;;;;15.93;67.65;101518.25;5079374;28;45586;-76
2021/08/26 06:22:45;;;;;;;;;0.00;0.00;;;;;15.87;68.09;101520.03;5078860;27;45682;-76
2021/08/26 06:25:12;;;;;;;;;0.00;0.00;;;;;15.81;67.95;101520.91;5076258;28;45551;-77
2021/08/26 06:27:37;;;;;;;;;0.00;0.00;;;;;15.62;67.97;101483.28;5087895;27;45618;-77
2021/08/26 06:30:04;;;;;;;;;0.00;0.00;;;;;15.86;68.39;101518.28;5080127;28;45293;-78
2021/08/26 06:32:30;;;;;;;;;0.00;0.00;;;;;15.80;68.13;101512.16;5079190;28;45887;-76
2021/08/26 06:34:58;;;;;;;;;0.00;0.00;;;;;15.60;68.13;101469.28;5081424;27;45650;-77
2021/08/26 06:37:23;;;;;;;;;0.00;0.00;;;;;15.99;68.29;101516.53;5081658;28;45149;-75
2021/08/26 06:39:49;;;;;;;;;0.00;0.00;;;;;15.77;68.22;101479.78;5084672;27;45251;-75
2021/08/26 06:42:14;;;;;;;;;0.00;0.00;;;;;16.01;68.50;101515.66;5079564;27;45534;-75
2021/08/26 06:44:39;;;;;;;;;0.00;0.00;;;;;15.96;68.43;101489.41;5097421;27;46167;-74
2021/08/26 06:47:05;;;;;;;;;1.50;0.00;;;;;15.98;68.31;101480.66;5100857;27;45325;-74
2021/08/26 06:49:30;;;;;;;;;0.00;0.00;;;;;16.11;69.04;101506.00;5102065;27;45302;-74
2021/08/26 06:51:56;;;;;;;;;0.00;0.00;;;;;16.07;68.58;101502.53;5092698;27;45249;-75
2021/08/26 06:54:21;;;;;;;;;0.00;0.00;;;;;16.07;68.49;101485.88;5080950;27;45329;-75
2021/08/26 06:56:46;;;;;;;;;0.00;0.00;;;;;16.17;68.82;101495.47;5079666;28;45303;-75
2021/08/26 06:59:12;;;;;;;;;0.00;0.00;;;;;16.30;68.87;101508.59;5081274;28;45392;-75
2021/08/26 07:01:37;;;;;;;;;0.00;0.00;;;;;16.17;68.56;101492.84;5079074;28;45673;-74
2021/08/26 07:04:02;;;;;;;;;0.00;0.00;;;;;16.37;68.58;101514.69;5077038;28;46270;-75
2021/08/26 07:06:29;;;;;;;;;0.00;0.00;;;;;16.44;68.36;101501.53;5080983;27;45298;-74
2021/08/26 07:08:54;;;;;;;;;0.00;0.00;;;;;16.53;68.36;101505.00;5080482;27;45367;-74
2021/08/26 07:11:19;;;;;;;;;0.00;0.00;;;;;16.58;68.21;101501.50;5112663;27;45995;-75
2021/08/26 07:13:45;;;;;;;;;1.75;0.00;;;;;16.66;68.44;101504.06;5076723;27;45405;-74
2021/08/26 07:16:10;;;;;;;;;0.00;0.00;;;;;16.82;67.61;101502.22;5075339;28;45500;-74
2021/08/26 07:18:36;;;;;;;;;0.00;0.00;;;;;16.83;67.86;101492.59;5079610;28;45532;-72
2021/08/26 07:21:01;;;;;;;;;0.00;0.00;;;;;16.94;67.45;101503.91;5079823;28;45367;-74
2021/08/26 07:23:27;;;;;;;;;0.00;0.00;;;;;16.98;67.63;101502.16;5079821;27;47762;-74
2021/08/26 07:25:52;;;;;;;;;0.00;0.00;;;;;17.12;67.94;101494.19;5079620;27;45489;-74
2021/08/26 07:28:17;;;;;;;;;0.00;0.00;;;;;17.34;67.10;101494.06;5078461;27;45679;-75
2021/08/26 07:30:43;;;;;;;;;0.00;0.00;;;;;17.50;67.41;101486.03;5082681;27;45573;-74
2021/08/26 07:33:08;;;;;;;;;0.00;0.00;;;;;17.79;66.12;101491.03;5073953;27;46608;-73
2021/08/26 07:35:34;;;;;;;;;0.00;0.00;;;;;17.84;65.63;101497.13;5074904;28;45239;-74
2021/08/26 07:37:59;;;;;;;;;0.00;0.00;;;;;17.76;65.33;101456.81;5073064;28;45718;-78
2021/08/26 07:40:26;;;;;;;;;0.00;0.00;;;;;17.79;65.25;101477.00;5074614;28;45297;-74
2021/08/26 07:42:51;;;;;;;;;0.00;0.00;;;;;17.81;64.83;101473.47;5069441;28;47076;-74
2021/08/26 07:45:16;;;;;;;;;0.00;0.00;;;;;17.88;65.08;101478.69;5072855;28;45564;-74
2021/08/26 07:47:42;;;;;;;;;0.00;0.00;;;;;18.24;65.02;101508.16;5066264;28;45465;-75
2021/08/26 07:50:08;;;;;;;;;0.00;0.00;;;;;18.32;64.74;101506.31;5069513;28;45499;-79
2021/08/26 07:52:34;;;;;;;;;0.50;0.00;;;;;18.27;64.18;101521.31;5077482;27;46878;-75
2021/08/26 07:55:02;;;;;;;;;0.00;0.00;;;;;18.09;64.16;101506.53;5075722;27;45386;-76
2021/08/26 07:57:28;;;;;;;;;0.00;0.00;;;;;17.92;64.44;101491.78;5087833;27;45462;-78
2021/08/26 07:59:53;;;;;;;;;0.00;0.00;;;;;17.89;65.26;101501.47;5069891;28;45410;-76
2021/08/26 08:02:18;;;;;;;;;0.00;0.00;;;;;17.65;64.99;101478.00;5075058;28;46817;-78
2021/08/26 08:04:44;;;;;;;;;0.00;0.00;;;;;17.80;65.31;101505.94;5075947;28;45270;-78
2021/08/26 08:07:09;;;;;;;;;0.00;0.00;;;;;17.83;65.47;101491.88;5077185;28;45373;-77
2021/08/26 08:09:35;;;;;;;;;0.00;0.00;;;;;18.00;64.70;101504.88;5108783;27;45259;-77
2021/08/26 08:12:00;;;;;;;;;2.00;0.00;;;;;17.84;64.72;101477.81;5111945;27;47121;-75
2021/08/26 08:14:28;;;;;;;;;0.00;0.00;;;;;17.97;64.68;101503.16;5075084;27;45430;-76
2021/08/26 08:16:55;;;;;;;;;0.00;0.00;;;;;18.05;64.88;101478.50;5068898;27;45458;-73
2021/08/26 08:19:20;;;;;;;;;0.00;0.00;;;;;18.14;64.16;101485.44;5090875;27;45552;-75
2021/08/26 08:21:45;;;;;;;;;0.50;0.00;;;;;18.22;64.81;101496.75;5083117;27;45545;-73
2021/08/26 08:24:11;;;;;;;;;0.00;0.00;;;;;18.33;64.52;101505.44;5094969;27;45341;-73
2021/08/26 08:26:36;;;;;;;;;0.00;0.00;;;;;18.08;64.64;101476.72;5096406;27;45431;-72
2021/08/26 08:29:01;;;;;;;;;0.00;0.00;;;;;18.29;64.49;101481.78;5082765;27;45339;-73
2021/08/26 08:31:27;;;;;;;;;0.00;0.00;;;;;18.44;64.40;101494.75;5077693;27;46566;-73
2021/08/26 08:33:52;;;;;;;;;0.00;0.00;;;;;18.63;64.12;101499.81;5081607;27;45397;-74
2021/08/26 08:36:19;;;;;;;;;0.00;0.00;;;;;18.65;63.87;101491.88;5079683;27;45336;-75
2021/08/26 08:38:45;;;;;;;;;0.00;0.00;;;;;18.60;63.81;101498.09;5078688;27;45411;-75
2021/08/26 08:41:15;;;;;;;;;0.00;0.00;;;;;18.10;64.01;101435.41;5075014;27;45563;-75
2021/08/26 08:43:40;;;;;;;;;0.00;0.00;;;;;18.43;64.24;101486.84;5080483;27;45327;-75
2021/08/26 08:46:06;;;;;;;;;0.00;0.00;;;;;18.32;63.90;101458.03;5079565;27;45497;-77
2021/08/26 08:48:37;;;;;;;;;0.00;0.00;;;;;18.63;63.88;101502.44;5111102;27;45566;-74
2021/08/26 08:51:03;;;;;;;;;0.00;0.00;;;;;18.34;64.32;101477.31;5078550;27;46237;-79
2021/08/26 08:53:29;;;;;;;;;0.00;0.00;;;;;18.27;64.93;101504.63;5077959;28;45334;-75
2021/08/26 08:55:55;;;;;;;;;0.00;0.00;;;;;18.03;65.27;101483.78;5079206;27;45272;-75
2021/08/26 08:58:20;;;;;;;;;0.00;0.00;;;;;18.08;65.77;101500.41;5088834;27;45316;-74
2021/08/26 09:00:45;;;;;;;;;0.00;0.00;;;;;18.03;65.73;101490.78;5090272;27;45450;-74
2021/08/26 09:03:11;;;;;;;;;0.00;0.00;;;;;17.97;66.58;101489.97;5100623;27;45439;-73
2021/08/26 09:06:03;;;;;;;;;0.00;0.00;;;;;18.00;67.11;101498.75;5096358;27;45362;-73
2021/08/26 09:08:31;;;;;;;;;0.00;0.00;;;;;17.91;67.23;101497.94;5081166;27;45525;-73
2021/08/26 09:11:17;;;;;;;;;0.00;0.00;;;;;17.93;67.73;101505.81;5084610;27;46391;-74
2021/08/26 09:13:44;;;;;;;;;0.00;0.00;;;;;17.78;67.46;101476.13;5062141;28;45319;-75
2021/08/26 09:16:11;;;;;;;;;0.00;0.00;;;;;17.99;67.17;101503.13;5073535;27;45292;-74
2021/08/26 09:18:37;;;;;;;;;0.00;0.00;;;;;17.84;67.71;101473.44;5086972;27;45460;-73
2021/08/26 09:21:05;;;;;;;;;3.00;1.00;;;;;17.88;67.90;101483.94;5097651;27;47785;-74
2021/08/26 09:23:34;;;;;;;;;0.00;0.00;;;;;18.05;67.58;101494.28;5112106;27;45472;-74
2021/08/26 09:26:18;;;;;;;;;0.00;0.00;;;;;18.09;67.33;101506.53;5082141;27;45302;-75
2021/08/26 09:28:43;;;;;;;;;0.00;0.00;;;;;18.00;67.53;101486.44;5080110;27;45344;-77
2021/08/26 09:31:19;;;;;;;;;0.00;0.00;;;;;18.20;67.29;101501.19;5110012;27;47558;-80
2021/08/26 09:34:09;;;;;;;;;2.00;0.00;;;;;18.25;67.33;101509.06;5114647;27;46155;-77
2021/08/26 09:36:48;;;;;;;;;0.00;0.00;;;;;18.28;67.49;101507.25;5118480;27;45280;-78
2021/08/26 09:39:20;;;;;;;;;0.00;0.00;;;;;18.33;67.09;101488.75;5097257;27;45733;-77
2021/08/26 09:41:50;;;;;;;;;0.00;0.00;;;;;18.50;67.34;101496.47;5080268;27;45516;-75
2021/08/26 09:44:16;;;;;;;;;1.00;0.00;;;;;18.60;66.61;101487.53;5081199;27;45338;-76
2021/08/26 09:46:44;;;;;;;;;0.00;0.00;;;;;18.74;66.53;101497.00;5061361;28;45342;-78
2021/08/26 09:49:12;;;;;;;;;0.00;0.00;;;;;18.68;66.13;101476.88;5072784;27;45580;-79
2021/08/26 09:51:39;;;;;;;;;0.00;0.00;;;;;18.65;66.38;101463.72;5080575;27;47568;-77
2021/08/26 09:54:24;;;;;;;;;0.00;0.00;;;;;18.79;66.10;101495.19;5093857;27;45290;-77
2021/08/26 09:56:49;;;;;;;;;0.00;0.00;;;;;18.86;65.70;101498.59;5097180;27;45461;-78
2021/08/26 09:59:15;;;;;;;;;0.00;0.00;;;;;18.55;66.10;101447.16;5093866;27;45551;-78
2021/08/26 10:01:40;;;;;;;;;1.00;1.00;;;;;18.64;66.23;101451.44;5095830;27;46321;-78
2021/08/26 10:04:28;;;;;;;;;0.00;0.00;;;;;18.89;66.29;101481.88;5097880;27;45264;-78
2021/08/26 10:06:54;;;;;;;;;0.00;0.00;;;;;18.82;65.55;101455.59;5067697;27;45274;-78
2021/08/26 10:09:21;;;;;;;;;0.00;0.00;;;;;19.06;65.90;101484.25;5091894;27;45441;-78
2021/08/26 10:11:47;;;;;;;;;0.00;0.00;;;;;19.13;65.13;101478.03;5096181;27;48001;-76
2021/08/26 10:14:12;;;;;;;;;0.00;0.00;;;;;19.24;65.02;101483.16;5084583;27;45465;-76
2021/08/26 10:16:38;;;;;;;;;0.00;0.00;;;;;19.26;64.87;101464.66;5090929;27;45715;-76
2021/08/26 10:19:04;;;;;;;;;0.00;0.00;;;;;19.42;64.25;101476.66;5100172;27;45670;-75
2021/08/26 10:21:30;;;;;;;;;0.00;0.00;;;;;19.62;64.13;101483.38;5080291;27;47275;-79
2021/08/26 10:23:56;;;;;;;;;0.00;0.00;;;;;19.67;63.95;101462.19;5097295;27;45310;-77
2021/08/26 10:26:22;;;;;;;;;0.00;0.00;;;;;19.81;63.39;101464.59;5097204;27;45481;-78
2021/08/26 10:28:49;;;;;;;;;0.25;0.00;;;;;19.68;63.51;101459.53;5084079;27;45487;-79
2021/08/26 10:31:40;;;;;;;;;0.00;0.00;;;;;19.75;63.71;101478.75;5087674;27;45683;-79
2021/08/26 10:34:21;;;;;;;;;0.00;0.00;;;;;19.57;63.74;101458.84;5073600;27;45240;-77
2021/08/26 10:36:55;;;;;;;;;0.00;0.00;;;;;19.70;63.84;101476.22;5084604;27;45311;-78
2021/08/26 10:39:41;;;;;;;;;0.00;0.00;;;;;19.69;63.86;101473.59;5079043;27;46065;-78
2021/08/26 10:42:23;;;;;;;;;0.00;0.00;;;;;19.53;63.80;101472.97;5073359;27;46351;-78
2021/08/26 10:45:04;;;;;;;;;0.00;0.00;;;;;19.44;63.95;101477.53;5080973;27;45353;-81
2021/08/26 10:47:48;;;;;;;;;0.00;0.00;;;;;19.54;64.27;101503.78;5110025;27;45363;-83
2021/08/26 10:50:15;;;;;;;;;0.00;0.00;;;;;19.44;64.07;101505.69;5079679;27;45589;-77
2021/08/26 10:52:59;;;;;;;;;0.00;0.00;;;;;19.31;65.01;101494.47;5077857;28;48406;-76
2021/08/26 10:55:28;;;;;;;;;0.00;0.00;;;;;19.40;65.28;101515.44;5078928;28;45244;-76
2021/08/26 10:57:53;;;;;;;;;0.00;0.00;;;;;19.28;64.93;101505.06;5096564;27;45342;-75
2021/08/26 11:00:40;;;;;;;;;0.00;0.00;;;;;19.34;65.02;101510.25;5094159;27;45430;-75
2021/08/26 11:03:06;;;;;;;;;0.00;0.00;;;;;19.20;64.32;101498.16;5100793;27;45479;-76
2021/08/26 11:05:36;;;;;;;;;0.00;0.00;;;;;19.01;64.29;101460.59;5087148;27;45285;-76
2021/08/26 11:08:31;;;;;;;;;0.00;0.00;;;;;19.27;64.30;101506.84;5079448;28;45278;-76
2021/08/26 11:11:17;;;;;;;;;0.50;0.00;;;;;19.07;64.22;101481.63;5078575;27;46367;-76
2021/08/26 11:13:43;;;;;;;;;0.00;0.00;;;;;19.26;64.23;101480.47;5080228;27;47331;-76
2021/08/26 11:16:23;;;;;;;;;0.00;0.00;;;;;19.52;64.12;101503.81;5078601;28;45311;-75
2021/08/26 11:18:59;;;;;;;;;0.00;0.00;;;;;19.81;63.81;101491.00;5080546;28;45341;-76
2021/08/26 11:24:23;;;;;;;;;0.00;0.00;;;;;20.45;63.09;101497.72;5093771;27;45935;-76
2021/08/26 11:26:54;;;;;;;;;0.00;0.00;;;;;20.55;62.21;101488.69;5098644;27;45519;-75
2021/08/26 11:29:22;;;;;;;;;0.00;0.00;;;;;20.55;62.11;101486.03;5098833;27;45381;-75
2021/08/26 11:31:54;;;;;;;;;0.00;0.00;;;;;20.67;61.65;101495.47;5099251;27;45348;-75
2021/08/26 11:34:22;;;;;;;;;0.00;0.00;;;;;20.72;61.71;101487.44;5100538;27;45315;-75